Time;durP1;ratioP1;P1;durP2;ratioP2;P2;SDS_P1;SDS_P2;PMS_P1;PMS_P2;Temp;Humidity;BMP_temperature;BMP_pressure;BME280_temperature;BME280_humidity;BME280_pressure;Samples;Min_cycle;Max_cycle;Signal;HPM_P1;HPM_P2
2023/10/12 00:02:27;;;;;;;16.70;9.80;;;18.50;99.90;;;;;;4968403;28;20026;-64
2023/10/12 00:07:33;;;;;;;15.15;9.18;;;18.40;99.90;;;;;;4983305;28;20030;-64
2023/10/12 00:10:22;;;;;;;15.88;9.57;;;18.30;99.90;;;;;;4988378;28;20449;-63
2023/10/12 00:12:50;;;;;;;14.77;10.18;;;18.30;99.90;;;;;;4978582;28;20093;-64
2023/10/12 00:17:47;;;;;;;13.00;9.45;;;18.60;99.90;;;;;;4968935;28;20034;-66
2023/10/12 00:23:13;;;;;;;16.75;10.57;;;18.60;99.90;;;;;;4964810;28;20042;-69
2023/10/12 00:25:54;;;;;;;15.82;10.52;;;18.60;99.90;;;;;;4987651;28;20109;-64
2023/10/12 00:28:21;;;;;;;16.15;10.40;;;18.50;99.90;;;;;;4968705;28;20593;-63
2023/10/12 00:30:49;;;;;;;16.75;10.85;;;18.50;99.90;;;;;;4981019;28;20026;-67
2023/10/12 00:33:17;;;;;;;19.90;11.35;;;18.50;99.90;;;;;;4950280;28;20129;-63
2023/10/12 00:35:48;;;;;;;20.52;11.30;;;18.40;99.90;;;;;;4950328;28;20027;-65
2023/10/12 00:38:17;;;;;;;15.15;10.80;;;18.40;99.90;;;;;;4967811;28;20395;-64
2023/10/12 00:40:57;;;;;;;17.70;11.82;;;18.40;99.90;;;;;;4967199;28;20033;-68
2023/10/12 00:49:15;;;;;;;16.92;11.57;;;18.30;99.90;;;;;;4967621;28;20043;-68
2023/10/12 00:51:37;;;;;;;13.63;10.18;;;18.30;99.90;;;;;;4967417;28;20045;-64
2023/10/12 00:54:04;;;;;;;16.25;11.30;;;18.20;99.90;;;;;;4967093;28;20112;-68
2023/10/12 00:56:30;;;;;;;13.10;10.23;;;18.30;99.90;;;;;;4968128;28;20043;-64
2023/10/12 00:58:57;;;;;;;15.70;11.18;;;18.30;99.90;;;;;;4968283;28;20031;-67
2023/10/12 01:01:25;;;;;;;14.40;10.23;;;18.30;99.90;;;;;;4968283;28;20038;-69
2023/10/12 01:03:52;;;;;;;18.27;11.80;;;18.20;99.90;;;;;;4968569;28;20389;-66
2023/10/12 01:08:52;;;;;;;16.33;11.02;;;18.10;99.90;;;;;;4968405;28;20035;-64
2023/10/12 01:11:20;;;;;;;16.50;10.57;;;18.10;99.90;;;;;;4968153;28;20046;-68
2023/10/12 01:13:49;;;;;;;16.63;10.13;;;18.00;99.90;;;;;;4968213;28;20034;-63
2023/10/12 01:16:23;;;;;;;14.98;10.35;;;18.00;99.90;;;;;;4968328;28;20077;-65
2023/10/12 01:19:05;;;;;;;16.17;10.55;;;18.00;99.90;;;;;;4968147;28;20035;-68
2023/10/12 01:21:35;;;;;;;17.98;10.43;;;17.90;99.90;;;;;;4968386;28;20035;-67
2023/10/12 01:24:11;;;;;;;15.88;10.05;;;17.90;99.90;;;;;;4967302;28;20034;-66
2023/10/12 01:26:44;;;;;;;13.55;9.68;;;17.90;99.90;;;;;;4968537;28;20043;-63
2023/10/12 01:29:19;;;;;;;17.02;10.43;;;17.90;99.90;;;;;;4970802;28;20380;-64
2023/10/12 01:31:51;;;;;;;13.35;9.65;;;17.90;99.90;;;;;;4987448;28;20030;-64
2023/10/12 01:34:17;;;;;;;15.93;10.85;;;17.90;99.90;;;;;;4987532;28;20026;-68
2023/10/12 01:36:43;;;;;;;18.05;10.55;;;17.80;99.90;;;;;;4987528;28;20406;-70
2023/10/12 01:39:14;;;;;;;13.75;10.07;;;17.80;99.90;;;;;;4988377;28;20022;-67
2023/10/12 01:41:42;;;;;;;20.20;11.38;;;17.80;99.90;;;;;;4969696;28;20077;-65
2023/10/12 01:44:11;;;;;;;17.42;10.95;;;17.80;99.90;;;;;;4968476;28;20030;-66
2023/10/12 01:46:42;;;;;;;14.55;10.25;;;17.70;99.90;;;;;;4999601;28;20043;-70
2023/10/12 01:49:10;;;;;;;15.93;10.32;;;17.70;99.90;;;;;;4968456;28;20419;-71
2023/10/12 01:51:45;;;;;;;16.23;10.80;;;17.60;99.90;;;;;;4968093;28;20023;-68
2023/10/12 01:54:22;;;;;;;17.20;11.75;;;17.70;99.90;;;;;;4968966;28;20034;-68
2023/10/12 01:56:51;;;;;;;16.58;11.18;;;17.60;99.90;;;;;;4967475;28;20182;-68
2023/10/12 01:59:19;;;;;;;17.58;11.25;;;17.50;99.90;;;;;;4967546;28;20039;-70
2023/10/12 02:01:54;;;;;;;18.75;11.45;;;17.50;99.90;;;;;;4968399;28;20027;-69
2023/10/12 02:04:25;;;;;;;21.02;12.05;;;17.40;99.90;;;;;;4968116;28;20110;-63
2023/10/12 02:06:51;;;;;;;14.88;11.05;;;17.50;99.90;;;;;;4967416;28;20491;-63
2023/10/12 02:09:22;;;;;;;14.88;11.38;;;17.40;99.90;;;;;;4967307;28;20047;-64
2023/10/12 02:11:53;;;;;;;28.63;12.60;;;17.40;99.90;;;;;;4968521;28;20035;-66
2023/10/12 02:14:40;;;;;;;19.83;11.38;;;17.30;99.90;;;;;;4967878;28;20038;-64
2023/10/12 02:17:09;;;;;;;18.33;11.80;;;17.30;99.90;;;;;;4968146;28;20044;-64
2023/10/12 02:19:43;;;;;;;16.88;12.73;;;17.20;99.90;;;;;;4967874;28;20027;-66
2023/10/12 02:22:23;;;;;;;18.13;12.25;;;17.20;99.90;;;;;;4967501;28;20041;-65
2023/10/12 02:24:58;;;;;;;22.35;13.70;;;17.20;99.90;;;;;;4967336;28;20533;-63
2023/10/12 02:27:24;;;;;;;22.35;12.95;;;17.10;99.90;;;;;;4967582;28;20106;-68
2023/10/12 02:29:53;;;;;;;22.95;13.25;;;17.00;99.90;;;;;;4974859;28;20037;-67
2023/10/12 02:32:23;;;;;;;24.90;14.15;;;17.00;99.90;;;;;;4986985;28;20070;-68
2023/10/12 02:34:55;;;;;;;19.10;14.40;;;17.10;99.90;;;;;;4987899;28;20038;-64
2023/10/12 02:37:24;;;;;;;22.95;14.13;;;17.10;99.90;;;;;;4990640;28;20065;-65
2023/10/12 02:39:53;;;;;;;19.00;13.73;;;17.20;99.90;;;;;;4974413;28;20042;-65
2023/10/12 02:42:22;;;;;;;19.88;13.45;;;17.10;99.90;;;;;;4970915;28;20037;-64
2023/10/12 02:47:24;;;;;;;20.98;13.27;;;17.10;99.90;;;;;;4970324;28;20038;-63
2023/10/12 02:50:20;;;;;;;21.27;14.13;;;17.10;99.90;;;;;;4970744;28;20035;-67
2023/10/12 02:52:47;;;;;;;21.63;13.80;;;17.00;99.90;;;;;;4971016;28;20030;-69
2023/10/12 02:58:44;;;;;;;22.52;14.13;;;17.00;99.90;;;;;;4971118;28;20329;-71
2023/10/12 03:03:25;;;;;;;17.92;13.77;;;17.00;99.90;;;;;;4970301;28;20035;-64
2023/10/12 03:05:52;;;;;;;23.55;13.48;;;17.00;99.90;;;;;;4970568;28;20454;-65
2023/10/12 03:08:20;;;;;;;18.98;13.88;;;16.90;99.90;;;;;;4969770;28;20098;-64
2023/10/12 03:11:31;;;;;;;22.17;13.30;;;16.90;99.90;;;;;;4970497;28;20557;-63
2023/10/12 03:13:40;;;;;;;19.65;13.80;;;16.90;99.90;;;;;;4972157;28;20795;-67
2023/10/12 03:18:44;;;;;;;22.20;14.02;;;16.80;99.90;;;;;;4970305;28;20117;-64
2023/10/12 03:21:14;;;;;;;21.90;15.20;;;16.80;99.90;;;;;;4970003;28;20575;-64
2023/10/12 03:23:46;;;;;;;19.50;12.48;;;16.70;99.90;;;;;;4969244;28;20035;-64
2023/10/12 03:26:26;;;;;;;19.05;14.82;;;16.80;99.90;;;;;;4970096;28;20073;-63
2023/10/12 03:29:18;;;;;;;22.92;13.63;;;16.80;99.90;;;;;;4970107;28;20038;-68
2023/10/12 03:34:17;;;;;;;22.52;14.88;;;16.90;99.90;;;;;;4969798;28;20114;-68
2023/10/12 03:36:48;;;;;;;24.58;15.95;;;16.90;99.90;;;;;;4969793;28;20026;-65
2023/10/12 03:47:05;;;;;;;20.00;14.77;;;16.80;99.90;;;;;;4968850;28;20065;-63
2023/10/12 03:49:32;;;;;;;20.23;15.18;;;16.70;99.90;;;;;;4969109;28;20054;-64
2023/10/12 03:52:12;;;;;;;23.98;16.33;;;16.70;99.90;;;;;;4968806;28;20025;-65
2023/10/12 03:54:39;;;;;;;22.27;14.68;;;16.70;99.90;;;;;;4969160;28;20065;-70
2023/10/12 03:57:19;;;;;;;23.60;15.25;;;16.60;99.90;;;;;;4968916;28;20026;-70
2023/10/12 04:02:58;;;;;;;22.75;14.93;;;16.60;99.90;;;;;;4949887;28;20039;-71
2023/10/12 04:13:09;;;;;;;25.35;14.85;;;16.30;99.90;;;;;;4969390;28;20089;-67
2023/10/12 04:18:28;;;;;;;24.80;16.33;;;16.30;99.90;;;;;;4969183;28;20107;-67
2023/10/12 04:20:57;;;;;;;24.15;15.82;;;16.30;99.90;;;;;;4968901;28;20030;-68
2023/10/12 04:28:50;;;;;;;23.80;16.52;;;16.40;99.90;;;;;;4968970;28;20042;-67
2023/10/12 04:41:46;;;;;;;22.13;15.32;;;16.30;99.90;;;;;;4968618;28;20030;-63
2023/10/12 04:47:13;;;;;;;26.60;17.05;;;16.40;99.90;;;;;;4960924;28;20035;-66
2023/10/12 04:54:59;;;;;;;26.05;15.95;;;16.50;99.90;;;;;;4969651;28;20770;-65
2023/10/12 04:57:38;;;;;;;24.70;16.48;;;16.50;99.90;;;;;;4976819;28;20328;-65
2023/10/12 05:00:24;;;;;;;27.70;15.55;;;16.60;99.90;;;;;;4968500;28;20189;-70
2023/10/12 05:07:57;;;;;;;21.80;16.48;;;16.70;99.90;;;;;;4964555;28;20046;-67
2023/10/12 05:13:04;;;;;;;24.30;14.75;;;16.60;99.90;;;;;;4962694;28;20114;-67
2023/10/12 05:15:42;;;;;;;19.67;14.15;;;16.60;99.90;;;;;;4965741;28;20059;-64
2023/10/12 05:18:12;;;;;;;26.95;16.45;;;16.60;99.90;;;;;;4968004;28;20217;-63
2023/10/12 05:20:41;;;;;;;26.08;16.13;;;16.50;99.90;;;;;;4963345;28;20321;-64
2023/10/12 05:23:08;;;;;;;21.83;15.63;;;16.60;99.90;;;;;;4967440;28;20077;-65
2023/10/12 05:28:27;;;;;;;22.58;15.10;;;16.60;99.90;;;;;;4969029;28;20038;-66
2023/10/12 05:31:09;;;;;;;26.50;16.05;;;16.70;99.90;;;;;;4969237;28;20026;-66
2023/10/12 05:33:40;;;;;;;28.10;15.77;;;16.60;99.90;;;;;;4969942;28;20118;-64
2023/10/12 05:36:10;;;;;;;19.45;13.93;;;16.60;99.90;;;;;;4968906;28;20123;-64
2023/10/12 05:38:51;;;;;;;21.35;12.45;;;16.60;99.90;;;;;;4968633;28;20058;-68
2023/10/12 05:43:58;;;;;;;26.60;14.95;;;16.60;99.90;;;;;;4960201;28;20117;-67
2023/10/12 05:46:29;;;;;;;18.10;13.97;;;16.70;99.90;;;;;;4966235;28;20204;-67
2023/10/12 05:48:55;;;;;;;26.42;15.40;;;16.60;99.90;;;;;;4973822;28;20134;-67
2023/10/12 05:51:21;;;;;;;22.45;16.27;;;16.60;99.90;;;;;;4963324;28;20538;-68
2023/10/12 05:54:01;;;;;;;26.08;15.48;;;16.60;99.90;;;;;;4968721;28;20046;-67
2023/10/12 05:56:28;;;;;;;23.67;14.45;;;16.50;99.90;;;;;;4968210;28;20458;-67
2023/10/12 05:58:53;;;;;;;;;;;16.50;99.90;;;;;;4969074;28;20042;-66
2023/10/12 06:01:35;;;;;;;21.35;14.07;;;16.50;99.90;;;;;;4966323;28;19937;-69
2023/10/12 06:04:08;;;;;;;22.83;15.25;;;16.50;99.90;;;;;;4969533;28;20082;-68
2023/10/12 06:06:41;;;;;;;29.10;16.42;;;16.50;99.90;;;;;;4958060;28;20820;-69
2023/10/12 06:09:11;;;;;;;26.83;16.20;;;16.50;99.90;;;;;;4999425;28;20486;-69
2023/10/12 06:11:41;;;;;;;27.40;17.15;;;16.60;99.90;;;;;;4964675;28;20126;-67
2023/10/12 06:14:08;;;;;;;26.45;16.75;;;16.70;99.90;;;;;;4972804;28;20023;-67
2023/10/12 06:16:40;;;;;;;22.98;14.32;;;16.70;99.90;;;;;;4971558;28;20026;-65
2023/10/12 06:19:25;;;;;;;25.85;15.13;;;16.70;99.90;;;;;;4979664;28;20030;-70
2023/10/12 06:21:52;;;;;;;25.50;15.65;;;16.80;99.90;;;;;;4966941;28;20117;-68
2023/10/12 06:24:27;;;;;;;25.13;15.98;;;16.90;99.90;;;;;;4974412;28;20034;-69
2023/10/12 06:26:55;;;;;;;20.73;14.27;;;16.90;99.90;;;;;;4970963;28;20042;-69
2023/10/12 06:29:28;;;;;;;29.60;14.63;;;16.90;99.90;;;;;;4971905;28;20038;-66
2023/10/12 06:31:59;;;;;;;28.25;15.30;;;17.00;99.90;;;;;;4972376;28;20023;-70
2023/10/12 06:34:29;;;;;;;21.30;15.07;;;17.00;99.90;;;;;;4974522;28;20351;-64
2023/10/12 06:36:58;;;;;;;20.67;15.02;;;17.00;99.90;;;;;;4973028;28;20534;-68
2023/10/12 06:44:25;;;;;;;25.80;15.70;;;16.90;99.90;;;;;;4975941;28;20030;-69
2023/10/12 06:47:24;;;;;;;24.90;14.60;;;17.00;99.90;;;;;;4996671;28;20118;-67
2023/10/12 06:49:51;;;;;;;25.20;13.93;;;17.00;99.90;;;;;;4972112;28;20035;-67
2023/10/12 06:52:19;;;;;;;23.88;14.27;;;17.10;99.90;;;;;;4974056;28;20030;-67
2023/10/12 06:54:54;;;;;;;22.08;14.95;;;17.10;99.90;;;;;;4968505;28;20130;-67
2023/10/12 07:02:28;;;;;;;22.95;14.32;;;17.10;99.90;;;;;;4970734;28;20495;-66
2023/10/12 07:04:58;;;;;;;23.85;13.70;;;17.10;99.90;;;;;;4971637;28;20077;-67
2023/10/12 07:07:41;;;;;;;20.80;14.45;;;17.10;99.90;;;;;;4986270;28;20034;-63
2023/10/12 07:12:48;;;;;;;24.42;14.93;;;17.10;99.90;;;;;;4973418;28;20038;-64
2023/10/12 07:15:23;;;;;;;24.10;14.63;;;17.00;99.90;;;;;;4957223;28;20035;-65
2023/10/12 07:17:53;;;;;;;20.52;14.50;;;17.10;99.90;;;;;;4974223;28;20053;-63
2023/10/12 07:22:52;;;;;;;22.60;15.02;;;17.00;99.90;;;;;;4963110;28;20066;-65
2023/10/12 07:25:25;;;;;;;29.83;15.67;;;17.00;99.90;;;;;;4965461;28;20101;-68
2023/10/12 07:27:59;;;;;;;25.85;14.73;;;16.90;99.90;;;;;;4970574;28;20027;-68
2023/10/12 07:30:36;;;;;;;24.20;16.05;;;17.10;99.90;;;;;;4966848;28;20052;-65
2023/10/12 07:33:07;;;;;;;26.42;15.13;;;17.30;99.90;;;;;;4996279;28;20054;-67
2023/10/12 07:35:38;;;;;;;32.67;16.48;;;17.20;99.90;;;;;;4974961;28;20418;-68
2023/10/12 07:38:35;;;;;;;22.30;15.15;;;17.20;99.90;;;;;;4972492;28;20035;-67
2023/10/12 07:41:00;;;;;;;25.17;14.73;;;17.40;99.90;;;;;;4971886;28;20106;-69
2023/10/12 07:43:31;;;;;;;27.25;15.77;;;18.00;99.90;;;;;;4970640;28;20027;-70
2023/10/12 07:46:24;;;;;;;22.08;13.20;;;18.60;99.90;;;;;;4973206;28;20510;-66
2023/10/12 07:48:51;;;;;;;28.40;13.63;;;18.80;99.90;;;;;;4968858;28;20090;-69
2023/10/12 07:51:26;;;;;;;23.30;12.20;;;19.10;99.90;;;;;;4999616;28;20034;-65
2023/10/12 07:54:00;;;;;;;18.13;11.15;;;20.30;99.90;;;;;;4967881;28;20121;-67
2023/10/12 07:56:33;;;;;;;17.98;10.73;;;22.00;99.90;;;;;;4967618;28;20095;-68
2023/10/12 07:59:00;;;;;;;16.95;10.82;;;22.70;95.80;;;;;;5000713;28;20490;-67
2023/10/12 08:03:53;;;;;;;14.60;10.35;;;23.70;93.10;;;;;;4971737;28;20047;-69
2023/10/12 08:06:28;;;;;;;;;;;23.90;92.80;;;;;;4975275;28;20104;-64
2023/10/12 08:09:02;;;;;;;14.68;9.38;;;24.20;90.60;;;;;;4962909;28;20421;-68
2023/10/12 08:11:28;;;;;;;15.82;10.55;;;24.10;91.50;;;;;;4968938;28;20365;-68
2023/10/12 08:13:55;;;;;;;17.55;9.40;;;23.30;91.40;;;;;;4971432;28;20035;-68
2023/10/12 08:16:28;;;;;;;18.25;9.30;;;23.60;92.30;;;;;;4968068;28;20038;-68
2023/10/12 08:32:04;;;;;;;14.70;8.88;;;24.20;88.70;;;;;;4964477;28;20133;-68
2023/10/12 08:39:38;;;;;;;12.43;8.80;;;24.90;87.40;;;;;;4969029;28;20617;-68
2023/10/12 08:44:59;;;;;;;14.38;8.85;;;25.30;85.40;;;;;;4968652;28;20423;-64
2023/10/12 08:47:40;;;;;;;14.30;8.27;;;25.10;82.60;;;;;;4967329;28;20026;-63
2023/10/12 08:50:08;;;;;;;14.38;8.52;;;25.80;86.00;;;;;;4969176;28;20412;-65
2023/10/12 08:52:38;;;;;;;12.25;8.27;;;25.60;83.10;;;;;;4967726;28;20080;-65
2023/10/12 08:55:12;;;;;;;15.30;7.90;;;25.30;84.90;;;;;;4970773;28;20125;-63
2023/10/12 08:57:44;;;;;;;17.88;8.27;;;26.20;82.50;;;;;;4971947;28;20038;-64
2023/10/12 09:00:25;;;;;;;12.50;7.97;;;26.30;80.90;;;;;;4997091;28;20130;-67
2023/10/12 09:02:59;;;;;;;8.82;6.80;;;25.70;82.90;;;;;;4965697;28;20027;-64
2023/10/12 09:05:33;;;;;;;12.82;7.85;;;26.70;82.20;;;;;;4969006;28;20492;-66
2023/10/12 09:13:29;;;;;;;11.70;7.28;;;26.10;81.50;;;;;;4968549;28;20069;-64
2023/10/12 09:15:57;;;;;;;9.52;7.43;;;25.70;80.50;;;;;;4971608;28;20034;-64
2023/10/12 09:18:25;;;;;;;10.32;6.78;;;25.60;79.70;;;;;;4966008;28;20113;-67
2023/10/12 09:21:17;;;;;;;10.57;6.80;;;26.90;78.20;;;;;;4970225;28;20031;-67
2023/10/12 09:23:47;;;;;;;8.93;6.68;;;26.90;77.50;;;;;;4964650;28;20041;-67
2023/10/12 09:36:39;;;;;;;10.07;6.85;;;24.40;82.60;;;;;;4980306;28;20037;-67
2023/10/12 09:39:14;;;;;;;12.15;6.70;;;24.50;84.70;;;;;;4966314;28;20038;-67
2023/10/12 09:41:43;;;;;;;8.52;7.00;;;24.30;82.90;;;;;;4965008;28;20023;-68
2023/10/12 09:44:12;;;;;;;13.65;7.97;;;24.20;83.80;;;;;;4966541;28;20039;-67
2023/10/12 09:46:47;;;;;;;11.88;7.10;;;24.40;83.20;;;;;;4970082;28;20036;-62
2023/10/12 09:49:22;;;;;;;9.45;6.40;;;24.20;83.10;;;;;;4974788;28;20039;-64
2023/10/12 09:51:59;;;;;;;10.20;6.57;;;24.10;82.50;;;;;;4972975;28;20168;-64
2023/10/12 09:54:45;;;;;;;14.90;6.78;;;23.90;83.50;;;;;;4970038;28;20049;-64
2023/10/12 09:57:26;;;;;;;10.20;7.00;;;23.70;83.80;;;;;;4973027;28;20506;-62
2023/10/12 10:00:18;;;;;;;13.70;7.40;;;23.60;84.50;;;;;;4970868;28;20561;-64
2023/10/12 10:02:49;;;;;;;15.70;7.53;;;23.70;82.70;;;;;;4997643;28;20031;-64
2023/10/12 10:07:55;;;;;;;12.43;6.80;;;23.80;82.70;;;;;;4970823;28;20049;-65
2023/10/12 10:10:45;;;;;;;12.13;6.40;;;23.70;84.00;;;;;;4966893;28;20088;-64
2023/10/12 10:13:37;;;;;;;10.52;6.28;;;23.80;85.00;;;;;;4975062;28;20141;-67
2023/10/12 10:16:08;;;;;;;11.07;7.20;;;23.60;82.70;;;;;;4974039;28;20031;-63
2023/10/12 10:18:48;;;;;;;15.65;6.53;;;23.50;85.00;;;;;;4966895;28;20494;-64
2023/10/12 10:21:19;;;;;;;12.32;6.75;;;23.40;83.90;;;;;;4974141;28;20491;-63
2023/10/12 10:23:52;;;;;;;10.05;7.53;;;23.40;86.20;;;;;;4966384;28;20039;-66
2023/10/12 10:26:54;;;;;;;12.13;7.47;;;23.40;87.20;;;;;;4972614;28;20038;-66
2023/10/12 10:29:17;;;;;;;11.73;7.13;;;23.30;86.50;;;;;;4973230;28;20423;-62
2023/10/12 10:31:50;;;;;;;10.23;6.28;;;23.40;88.10;;;;;;4969561;28;20113;-64
2023/10/12 10:34:23;;;;;;;11.35;6.55;;;23.30;84.50;;;;;;4969805;28;20035;-64
2023/10/12 10:36:53;;;;;;;12.52;6.97;;;23.30;83.90;;;;;;4970483;28;20031;-66
2023/10/12 10:41:54;;;;;;;13.35;7.18;;;23.10;83.30;;;;;;4972266;28;20130;-63
2023/10/12 10:44:22;;;;;;;13.35;5.90;;;23.20;84.40;;;;;;5003646;28;20038;-64
2023/10/12 10:47:01;;;;;;;11.10;6.80;;;23.10;83.30;;;;;;4963925;28;20039;-64
2023/10/12 10:49:33;;;;;;;11.05;6.60;;;23.00;83.60;;;;;;4974962;28;20034;-64
2023/10/12 10:54:37;;;;;;;13.52;6.18;;;23.20;83.10;;;;;;4969072;28;20377;-65
2023/10/12 10:57:25;;;;;;;11.60;6.07;;;23.10;82.70;;;;;;4970789;28;20613;-64
2023/10/12 10:59:50;;;;;;;11.45;6.63;;;23.10;82.60;;;;;;4968264;28;20388;-64
2023/10/12 11:02:16;;;;;;;12.73;6.85;;;23.00;83.10;;;;;;4968442;28;20089;-64
2023/10/12 11:04:42;;;;;;;11.07;6.23;;;23.00;84.30;;;;;;4969016;28;20043;-64
2023/10/12 11:07:12;;;;;;;10.73;6.30;;;23.00;85.50;;;;;;4975108;28;20121;-64
2023/10/12 11:10:05;;;;;;;12.63;7.50;;;23.00;85.30;;;;;;4968607;28;20049;-63
2023/10/12 11:12:38;;;;;;;14.73;6.70;;;23.00;84.50;;;;;;4969984;28;20034;-63
2023/10/12 11:15:09;;;;;;;14.80;5.95;;;22.90;84.80;;;;;;4971191;28;20093;-65
2023/10/12 11:17:55;;;;;;;9.88;6.15;;;23.00;82.30;;;;;;4971978;28;20093;-64
2023/10/12 11:20:27;;;;;;;12.30;5.93;;;22.90;83.50;;;;;;4972252;28;20027;-66
2023/10/12 11:23:02;;;;;;;14.43;6.93;;;22.90;83.10;;;;;;4964427;28;20491;-64
2023/10/12 11:25:28;;;;;;;12.52;6.30;;;22.90;82.80;;;;;;4969659;28;20094;-65
2023/10/12 11:27:53;;;;;;;16.05;6.25;;;22.90;84.10;;;;;;5001514;28;20097;-66
2023/10/12 11:30:35;;;;;;;9.43;6.32;;;22.90;85.40;;;;;;4969738;28;20046;-64
2023/10/12 11:33:09;;;;;;;10.43;5.95;;;22.90;84.70;;;;;;4970677;28;20038;-64
2023/10/12 11:35:40;;;;;;;11.48;6.72;;;23.00;84.40;;;;;;4971130;28;20035;-64
2023/10/12 11:38:20;;;;;;;12.25;6.13;;;23.00;83.90;;;;;;4970190;28;20411;-65
2023/10/12 11:40:52;;;;;;;8.57;6.10;;;23.10;86.30;;;;;;4943036;28;20157;-64
2023/10/12 11:43:19;;;;;;;13.60;5.47;;;23.10;84.90;;;;;;4964023;28;20394;-68
2023/10/12 11:46:01;;;;;;;15.35;6.78;;;23.10;81.60;;;;;;4960028;28;20039;-64
2023/10/12 11:48:28;;;;;;;15.63;5.28;;;23.00;84.60;;;;;;4962439;28;20096;-65
2023/10/12 11:50:56;;;;;;;13.88;5.95;;;23.10;87.10;;;;;;4965191;28;20042;-64
2023/10/12 11:53:24;;;;;;;13.75;5.35;;;23.10;82.30;;;;;;4959763;28;20022;-64
2023/10/12 11:56:23;;;;;;;12.18;5.43;;;23.20;83.60;;;;;;4961400;28;20499;-65
2023/10/12 11:58:55;;;;;;;12.70;5.43;;;23.40;81.20;;;;;;4959069;28;20051;-68
2023/10/12 12:01:22;;;;;;;14.65;5.25;;;23.50;83.10;;;;;;4993190;28;20453;-65
2023/10/12 12:03:53;;;;;;;14.48;4.80;;;23.50;82.90;;;;;;4956562;28;20045;-65
2023/10/12 12:06:19;;;;;;;15.15;4.53;;;23.60;79.40;;;;;;4962075;28;21072;-65
2023/10/12 12:08:49;;;;;;;10.60;5.97;;;23.70;79.60;;;;;;4952625;28;20070;-65
2023/10/12 12:11:19;;;;;;;11.25;5.22;;;23.70;79.70;;;;;;4957911;28;20035;-64
2023/10/12 12:13:51;;;;;;;13.52;4.93;;;23.80;79.80;;;;;;4962099;28;20043;-66
2023/10/12 12:16:21;;;;;;;9.73;4.38;;;23.80;78.80;;;;;;4957467;28;20026;-66
2023/10/12 12:18:53;;;;;;;9.70;5.18;;;23.90;79.60;;;;;;4957708;28;20031;-64
2023/10/12 12:21:29;;;;;;;7.20;4.22;;;23.90;79.10;;;;;;4990347;28;20045;-65
2023/10/12 12:26:49;;;;;;;11.93;4.95;;;24.20;80.90;;;;;;4954639;28;20039;-68
2023/10/12 12:29:16;;;;;;;9.93;4.63;;;24.20;80.80;;;;;;4959675;28;20425;-67
2023/10/12 12:31:42;;;;;;;8.43;4.95;;;24.20;80.10;;;;;;4959072;28;20027;-64
2023/10/12 12:34:08;;;;;;;10.25;5.78;;;24.10;84.00;;;;;;4957644;28;20107;-65
2023/10/12 12:36:35;;;;;;;11.52;5.38;;;24.20;80.90;;;;;;4960258;28;20403;-63
2023/10/12 12:39:08;;;;;;;8.50;4.50;;;24.20;81.80;;;;;;4955294;28;20031;-66
2023/10/12 12:41:34;;;;;;;9.63;4.05;;;24.40;76.50;;;;;;4995803;28;20035;-64
2023/10/12 12:44:00;;;;;;;10.02;4.47;;;24.60;74.70;;;;;;4961121;28;20034;-62
2023/10/12 12:46:29;;;;;;;7.43;4.20;;;24.60;75.80;;;;;;4959775;28;20033;-68
2023/10/12 12:48:58;;;;;;;10.38;4.75;;;24.50;77.60;;;;;;4960358;28;20070;-66
2023/10/12 12:51:23;;;;;;;11.60;5.47;;;24.50;78.50;;;;;;4959304;28;20561;-62
2023/10/12 12:53:52;;;;;;;11.77;4.53;;;24.70;77.50;;;;;;4962307;28;20039;-63
2023/10/12 12:56:19;;;;;;;16.63;5.15;;;24.70;76.00;;;;;;4960488;28;20781;-66
2023/10/12 12:58:46;;;;;;;9.05;4.80;;;24.60;79.70;;;;;;4956846;28;20042;-63
2023/10/12 13:01:17;;;;;;;12.35;5.07;;;24.60;75.80;;;;;;4957463;28;20050;-65
2023/10/12 13:03:44;;;;;;;10.40;4.70;;;24.60;76.20;;;;;;4959426;28;20039;-64
2023/10/12 13:06:11;;;;;;;11.57;5.22;;;24.50;76.20;;;;;;4962108;28;20125;-62
2023/10/12 13:08:37;;;;;;;12.13;4.57;;;24.70;73.60;;;;;;4953034;28;20106;-62
2023/10/12 13:11:06;;;;;;;8.52;4.60;;;24.70;72.90;;;;;;4954751;28;20035;-64
2023/10/12 13:13:33;;;;;;;9.88;4.40;;;24.70;78.30;;;;;;4958891;28;20042;-64
2023/10/12 13:16:05;;;;;;;10.93;4.57;;;24.70;77.10;;;;;;4957804;28;20027;-64
2023/10/12 13:18:34;;;;;;;17.42;6.57;;;24.80;75.20;;;;;;4962468;28;20046;-62
2023/10/12 13:21:06;;;;;;;10.45;4.57;;;24.90;76.90;;;;;;4974792;28;20066;-65
2023/10/12 13:23:33;;;;;;;12.73;4.93;;;25.10;73.80;;;;;;4956520;28;20034;-65
2023/10/12 13:26:09;;;;;;;10.68;4.95;;;25.00;74.90;;;;;;4960029;28;20039;-63
2023/10/12 13:28:35;;;;;;;9.30;4.60;;;25.00;75.40;;;;;;4960400;28;20455;-65
2023/10/12 13:31:01;;;;;;;16.83;5.20;;;25.10;73.90;;;;;;4958671;28;20141;-65
2023/10/12 13:33:30;;;;;;;11.35;5.45;;;25.10;75.20;;;;;;4961802;28;20023;-63
2023/10/12 13:35:59;;;;;;;7.65;4.78;;;25.10;74.70;;;;;;4959796;28;20038;-64
2023/10/12 13:38:29;;;;;;;7.38;4.45;;;25.00;75.30;;;;;;4956634;28;20499;-63
2023/10/12 13:40:56;;;;;;;11.00;5.22;;;25.10;73.10;;;;;;4994624;28;20078;-65
2023/10/12 13:43:22;;;;;;;12.75;5.28;;;25.00;75.20;;;;;;4959420;28;20041;-63
2023/10/12 13:45:49;;;;;;;13.10;5.13;;;25.10;73.80;;;;;;4960035;28;20030;-64
2023/10/12 13:48:25;;;;;;;11.93;4.95;;;25.00;77.00;;;;;;4962051;28;20054;-65
2023/10/12 13:51:01;;;;;;;15.97;5.63;;;24.90;79.10;;;;;;4958554;28;20034;-66
2023/10/12 13:53:27;;;;;;;8.98;4.90;;;24.90;78.10;;;;;;4962042;28;20034;-68
2023/10/12 13:55:53;;;;;;;;;;;25.00;77.10;;;;;;4956659;28;20040;-65
2023/10/12 13:58:24;;;;;;;13.35;4.60;;;25.10;76.30;;;;;;4961950;28;19918;-63
2023/10/12 14:00:54;;;;;;;11.38;5.00;;;25.10;74.60;;;;;;4959874;28;20034;-65
2023/10/12 14:03:28;;;;;;;14.77;4.95;;;25.00;79.90;;;;;;4958779;28;20039;-62
2023/10/12 14:05:59;;;;;;;14.02;5.28;;;25.00;76.50;;;;;;4961807;28;20042;-63
2023/10/12 14:08:25;;;;;;;13.02;4.75;;;25.10;73.60;;;;;;4957742;28;20557;-62
2023/10/12 14:10:54;;;;;;;9.35;4.68;;;25.20;75.60;;;;;;4958144;28;20837;-64
2023/10/12 14:13:20;;;;;;;13.88;5.15;;;25.20;76.50;;;;;;4960107;28;20802;-64
2023/10/12 14:15:47;;;;;;;10.30;4.72;;;25.10;74.70;;;;;;4961040;28;20133;-63
2023/10/12 14:18:16;;;;;;;12.52;5.35;;;25.20;73.10;;;;;;4956585;28;20349;-65
2023/10/12 14:20:46;;;;;;;7.75;4.50;;;25.20;78.40;;;;;;4959198;28;20085;-63
2023/10/12 14:23:13;;;;;;;12.30;5.25;;;25.10;77.50;;;;;;4958897;28;20074;-63
2023/10/12 14:25:45;;;;;;;13.00;5.30;;;25.00;76.90;;;;;;4958422;28;20046;-65
2023/10/12 14:28:14;;;;;;;14.48;5.00;;;25.00;74.30;;;;;;4962015;28;20047;-65
2023/10/12 14:30:39;;;;;;;9.23;5.28;;;25.10;75.10;;;;;;4952564;28;20059;-67
2023/10/12 14:33:06;;;;;;;10.80;5.07;;;25.00;75.50;;;;;;4963534;28;20069;-64
2023/10/12 14:35:40;;;;;;;17.02;5.80;;;24.90;77.70;;;;;;4961948;28;20281;-64
2023/10/12 14:38:07;;;;;;;16.77;5.82;;;25.00;80.60;;;;;;4964531;28;20030;-68
2023/10/12 14:40:38;;;;;;;7.65;5.18;;;25.10;76.30;;;;;;4965405;28;20086;-64
2023/10/12 14:43:10;;;;;;;12.82;5.35;;;25.10;78.00;;;;;;4968858;28;20410;-65
2023/10/12 14:45:48;;;;;;;16.00;5.13;;;25.10;78.20;;;;;;4966817;28;20045;-69
2023/10/12 14:48:17;;;;;;;15.38;5.10;;;25.10;79.80;;;;;;4963861;28;20038;-65
2023/10/12 14:50:49;;;;;;;17.10;5.38;;;25.00;79.20;;;;;;4965771;28;20039;-69
2023/10/12 14:53:21;;;;;;;10.38;4.90;;;25.00;80.20;;;;;;4995362;28;20019;-66
2023/10/12 14:55:53;;;;;;;15.00;5.22;;;24.80;82.10;;;;;;4959575;28;20031;-63
2023/10/12 14:58:19;;;;;;;12.85;5.10;;;24.70;81.30;;;;;;4964368;28;20034;-64
2023/10/12 15:00:44;;;;;;;;;;;24.70;82.70;;;;;;4963168;28;20457;-64
2023/10/12 15:03:11;;;;;;;11.15;5.18;;;24.60;84.00;;;;;;4964480;28;19910;-64
2023/10/12 15:05:37;;;;;;;11.40;4.47;;;24.50;83.00;;;;;;4962868;28;20046;-65
2023/10/12 15:08:07;;;;;;;;;;;24.40;79.80;;;;;;4966462;28;20224;-63
2023/10/12 15:10:43;;;;;;;14.52;4.95;;;24.40;82.70;;;;;;4965917;28;19914;-65
2023/10/12 15:13:19;;;;;;;13.98;5.35;;;24.20;83.60;;;;;;4963828;28;20031;-63
2023/10/12 15:15:45;;;;;;;10.13;5.75;;;24.10;84.70;;;;;;4965151;28;20045;-63
2023/10/12 15:18:18;;;;;;;16.42;4.75;;;24.10;85.70;;;;;;4965334;28;20110;-66
2023/10/12 15:20:44;;;;;;;11.93;5.10;;;24.20;86.20;;;;;;4993393;28;20027;-63
2023/10/12 15:23:14;;;;;;;16.88;5.38;;;24.10;83.80;;;;;;4963536;28;20026;-63
2023/10/12 15:25:40;;;;;;;8.50;4.82;;;24.10;84.50;;;;;;4961624;28;20035;-62
2023/10/12 15:28:06;;;;;;;17.02;5.18;;;24.00;84.10;;;;;;4965115;28;20067;-67
2023/10/12 15:30:33;;;;;;;12.88;4.50;;;23.90;84.40;;;;;;4962721;28;20042;-70
2023/10/12 15:33:01;;;;;;;12.02;4.68;;;23.80;86.60;;;;;;4958488;28;20039;-64